Terminal Aerodrome Forecast
Issued by NWS North Platte, NE

Home | Current Version | Previous Version | Graphics & Text | Print | Product List | Glossary On
Versions: 1 2 3 4 5 6 7 8 9 10 11 12 13 14 15 16 17 18 19 20 21
000
FTUS43 KLBF 181100
TAFVTN
TAF
KVTN 181120Z 1812/1912 03011KT P6SM -RA BKN035 OVC045
      TEMPO 1812/1814 4SM SHRA OVC025
     FM181600 07007KT P6SM OVC050 PROB30 1900/1904 5SM TSRA OVC050CB
     FM190400 34007KT P6SM OVC015
     FM190600 34014G20KT P6SM OVC015 PROB30 1906/1910 5SM SHRA
      OVC008=

USA.gov is the U.S. government's official web portal to all federal, state and local government web resources and services.